CEB1192 RPLI-RPLL
Flight info
| Callsign | CEB1192 |
|---|---|
| Flight time | 0h 52m |
| Altitude | 33000 |
| Route | MELAN6R MELAN M646 SANRO W4 NABAL NABAL7R |
| Aircraft | A320/M-SDE3FGHIRWY/LB1 |
Departure
| Time | 2026-05-05 15:33 |
|---|---|
| Airport | Laoag International Airport (RPLI) |
Arrival
| Time | 2026-05-05 16:25 |
|---|---|
| Airport | Ninoy Aquino International Airport (RPLL) |
| Time | Latitude | Longitude | Altitude | Speed | Heading |
|---|---|---|---|---|---|
| 2026-05-05 14:59 | 18.18249 | 120.53335 | 31 ft | 0 kts | 65° |
| 2026-05-05 15:22 | 18.18246 | 120.53329 | 31 ft | 2 kts | 58° |
| 2026-05-05 15:22 | 18.18236 | 120.53317 | 31 ft | 2 kts | 34° |
| 2026-05-05 15:22 | 18.18222 | 120.53310 | 31 ft | 2 kts | 13° |
| 2026-05-05 15:22 | 18.18207 | 120.53309 | 31 ft | 2 kts | 2° |
| 2026-05-05 15:23 | 18.18201 | 120.53308 | 31 ft | 0 kts | 6° |
| 2026-05-05 15:26 | 18.18209 | 120.53310 | 30 ft | 2 kts | 6° |
| 2026-05-05 15:26 | 18.18231 | 120.53312 | 30 ft | 4 kts | 6° |
| 2026-05-05 15:26 | 18.18266 | 120.53314 | 30 ft | 5 kts | 1° |
| 2026-05-05 15:27 | 18.18304 | 120.53292 | 29 ft | 8 kts | 295° |
| 2026-05-05 15:27 | 18.18317 | 120.53226 | 28 ft | 6 kts | 282° |
| 2026-05-05 15:27 | 18.18343 | 120.53193 | 28 ft | 6 kts | 336° |
| 2026-05-05 15:27 | 18.18396 | 120.53186 | 28 ft | 8 kts | 4° |
| 2026-05-05 15:28 | 18.18458 | 120.53191 | 28 ft | 9 kts | 5° |
| 2026-05-05 15:28 | 18.18530 | 120.53200 | 27 ft | 11 kts | 7° |
| 2026-05-05 15:28 | 18.18613 | 120.53208 | 27 ft | 12 kts | 5° |
| 2026-05-05 15:28 | 18.18694 | 120.53220 | 26 ft | 11 kts | 17° |
| 2026-05-05 15:29 | 18.18768 | 120.53257 | 25 ft | 11 kts | 24° |
| 2026-05-05 15:29 | 18.18842 | 120.53256 | 25 ft | 9 kts | 324° |
| 2026-05-05 15:29 | 18.18839 | 120.53213 | 25 ft | 8 kts | 178° |
| 2026-05-05 15:29 | 18.18789 | 120.53225 | 25 ft | 7 kts | 180° |
| 2026-05-05 15:30 | 18.18767 | 120.53223 | 25 ft | 0 kts | 186° |
| 2026-05-05 15:32 | 18.18733 | 120.53220 | 26 ft | 24 kts | 186° |
| 2026-05-05 15:32 | 18.18268 | 120.53177 | 28 ft | 106 kts | 186° |
| 2026-05-05 15:32 | 18.17295 | 120.53082 | 41 ft | 169 kts | 185° |
| 2026-05-05 15:33 | 18.16097 | 120.52980 | 687 ft | 174 kts | 183° |
| 2026-05-05 15:33 | 18.14892 | 120.52896 | 1474 ft | 177 kts | 184° |
| 2026-05-05 15:33 | 18.13666 | 120.52750 | 2098 ft | 187 kts | 186° |
| 2026-05-05 15:33 | 18.12292 | 120.52571 | 2546 ft | 209 kts | 186° |
| 2026-05-05 15:34 | 18.10772 | 120.52384 | 3000 ft | 232 kts | 186° |
| 2026-05-05 15:34 | 18.09092 | 120.52180 | 3593 ft | 250 kts | 186° |
| 2026-05-05 15:34 | 18.07315 | 120.51965 | 4166 ft | 267 kts | 186° |
| 2026-05-05 15:34 | 18.05408 | 120.51736 | 4842 ft | 279 kts | 186° |
| 2026-05-05 15:35 | 18.03499 | 120.51507 | 5762 ft | 280 kts | 186° |
| 2026-05-05 15:35 | 18.01579 | 120.51274 | 6710 ft | 279 kts | 186° |
| 2026-05-05 15:35 | 17.99003 | 120.50942 | 7843 ft | 283 kts | 187° |
| 2026-05-05 15:35 | 17.97706 | 120.50774 | 8348 ft | 286 kts | 187° |
| 2026-05-05 15:36 | 17.95690 | 120.50514 | 9132 ft | 291 kts | 186° |
| 2026-05-05 15:36 | 17.93699 | 120.50261 | 9893 ft | 294 kts | 186° |
| 2026-05-05 15:36 | 17.91646 | 120.50004 | 10556 ft | 301 kts | 187° |
| 2026-05-05 15:36 | 17.89500 | 120.49735 | 10943 ft | 318 kts | 187° |
| 2026-05-05 15:37 | 17.87236 | 120.49454 | 11268 ft | 336 kts | 187° |
| 2026-05-05 15:37 | 17.84855 | 120.49157 | 11701 ft | 348 kts | 187° |
| 2026-05-05 15:37 | 17.82420 | 120.48854 | 12343 ft | 353 kts | 187° |
| 2026-05-05 15:37 | 17.79977 | 120.48549 | 12988 ft | 356 kts | 187° |
| 2026-05-05 15:38 | 17.77525 | 120.48241 | 13603 ft | 359 kts | 188° |
| 2026-05-05 15:38 | 17.75034 | 120.47931 | 14235 ft | 362 kts | 188° |
| 2026-05-05 15:38 | 17.72506 | 120.47615 | 14858 ft | 365 kts | 188° |
| 2026-05-05 15:38 | 17.69978 | 120.47300 | 15456 ft | 367 kts | 188° |
| 2026-05-05 15:39 | 17.67448 | 120.46986 | 16058 ft | 370 kts | 188° |
| 2026-05-05 15:39 | 17.64863 | 120.46678 | 16649 ft | 372 kts | 188° |
| 2026-05-05 15:39 | 17.62300 | 120.46378 | 17203 ft | 375 kts | 188° |
| 2026-05-05 15:39 | 17.59690 | 120.46072 | 17746 ft | 377 kts | 188° |
| 2026-05-05 15:40 | 17.57083 | 120.45765 | 18263 ft | 380 kts | 188° |
| 2026-05-05 15:40 | 17.54431 | 120.45452 | 18767 ft | 384 kts | 188° |
| 2026-05-05 15:40 | 17.51765 | 120.45139 | 19275 ft | 387 kts | 188° |
| 2026-05-05 15:40 | 17.49083 | 120.44821 | 19770 ft | 389 kts | 188° |
| 2026-05-05 15:41 | 17.46352 | 120.44499 | 20270 ft | 392 kts | 188° |
| 2026-05-05 15:41 | 17.43655 | 120.44181 | 20759 ft | 395 kts | 188° |
| 2026-05-05 15:41 | 17.40889 | 120.43855 | 21243 ft | 398 kts | 188° |
| 2026-05-05 15:41 | 17.38111 | 120.43527 | 21710 ft | 401 kts | 188° |
| 2026-05-05 15:42 | 17.35320 | 120.43197 | 22177 ft | 404 kts | 188° |
| 2026-05-05 15:42 | 17.32521 | 120.42867 | 22646 ft | 407 kts | 188° |
| 2026-05-05 15:42 | 17.29690 | 120.42534 | 23132 ft | 410 kts | 188° |
| 2026-05-05 15:42 | 17.26844 | 120.42199 | 23606 ft | 412 kts | 188° |
| 2026-05-05 15:43 | 17.23996 | 120.41864 | 24087 ft | 414 kts | 188° |
| 2026-05-05 15:43 | 17.21115 | 120.41526 | 24550 ft | 417 kts | 188° |
| 2026-05-05 15:43 | 17.18233 | 120.41187 | 24970 ft | 420 kts | 188° |
| 2026-05-05 15:43 | 17.15276 | 120.40839 | 25400 ft | 423 kts | 188° |
| 2026-05-05 15:44 | 17.12336 | 120.40494 | 25819 ft | 426 kts | 188° |
| 2026-05-05 15:44 | 17.09404 | 120.40150 | 26234 ft | 428 kts | 188° |
| 2026-05-05 15:44 | 17.06432 | 120.39800 | 26650 ft | 431 kts | 188° |
| 2026-05-05 15:44 | 17.03419 | 120.39445 | 27060 ft | 433 kts | 188° |
| 2026-05-05 15:45 | 17.00436 | 120.39095 | 27447 ft | 435 kts | 188° |
| 2026-05-05 15:45 | 16.97389 | 120.38737 | 27829 ft | 437 kts | 188° |
| 2026-05-05 15:45 | 16.94371 | 120.38383 | 28207 ft | 439 kts | 188° |
| 2026-05-05 15:45 | 16.91316 | 120.38025 | 28711 ft | 437 kts | 189° |
| 2026-05-05 15:46 | 16.88328 | 120.37676 | 29243 ft | 435 kts | 189° |
| 2026-05-05 15:46 | 16.85295 | 120.37322 | 29729 ft | 433 kts | 189° |
| 2026-05-05 15:46 | 16.82324 | 120.36974 | 30008 ft | 433 kts | 189° |
| 2026-05-05 15:46 | 16.79348 | 120.36626 | 30448 ft | 429 kts | 189° |
| 2026-05-05 15:47 | 16.76387 | 120.36352 | 31154 ft | 414 kts | 186° |
| 2026-05-05 15:47 | 16.73551 | 120.36253 | 31867 ft | 404 kts | 183° |
| 2026-05-05 15:47 | 16.70774 | 120.36311 | 32504 ft | 398 kts | 180° |
| 2026-05-05 15:47 | 16.68022 | 120.36517 | 32889 ft | 400 kts | 178° |
| 2026-05-05 15:48 | 16.65204 | 120.36861 | 32957 ft | 410 kts | 176° |
| 2026-05-05 15:48 | 16.59408 | 120.37624 | 32966 ft | 429 kts | 176° |
| 2026-05-05 15:49 | 16.53372 | 120.38425 | 32978 ft | 442 kts | 175° |
| 2026-05-05 15:49 | 16.47253 | 120.39239 | 32979 ft | 444 kts | 175° |
| 2026-05-05 15:50 | 16.41095 | 120.40057 | 32975 ft | 444 kts | 175° |
| 2026-05-05 15:50 | 16.34969 | 120.40867 | 32956 ft | 439 kts | 175° |
| 2026-05-05 15:51 | 16.28865 | 120.41672 | 32949 ft | 444 kts | 175° |
| 2026-05-05 15:51 | 16.22726 | 120.42482 | 32937 ft | 444 kts | 175° |
| 2026-05-05 15:52 | 16.16590 | 120.43291 | 32929 ft | 444 kts | 175° |
| 2026-05-05 15:52 | 16.10432 | 120.44102 | 32924 ft | 444 kts | 175° |
| 2026-05-05 15:53 | 16.04298 | 120.44911 | 32926 ft | 444 kts | 175° |
| 2026-05-05 15:53 | 15.98137 | 120.45721 | 32924 ft | 445 kts | 175° |
| 2026-05-05 15:54 | 15.91967 | 120.46534 | 32921 ft | 445 kts | 175° |
| 2026-05-05 15:54 | 15.85837 | 120.47338 | 32922 ft | 445 kts | 175° |
| 2026-05-05 15:55 | 15.79649 | 120.48149 | 32911 ft | 445 kts | 175° |
| 2026-05-05 15:55 | 15.73502 | 120.48956 | 32905 ft | 445 kts | 175° |
| 2026-05-05 15:56 | 15.67344 | 120.49765 | 32905 ft | 446 kts | 175° |
| 2026-05-05 15:56 | 15.64232 | 120.50169 | 32363 ft | 449 kts | 175° |
| 2026-05-05 15:56 | 15.61137 | 120.50570 | 31722 ft | 449 kts | 175° |
| 2026-05-05 15:56 | 15.58057 | 120.50970 | 31243 ft | 443 kts | 175° |
| 2026-05-05 15:57 | 15.55026 | 120.51366 | 31185 ft | 427 kts | 175° |
| 2026-05-05 15:57 | 15.52137 | 120.51791 | 30966 ft | 417 kts | 172° |
| 2026-05-05 15:57 | 15.49319 | 120.52419 | 30601 ft | 412 kts | 167° |
| 2026-05-05 15:57 | 15.46576 | 120.53258 | 30213 ft | 407 kts | 163° |
| 2026-05-05 15:58 | 15.43937 | 120.54295 | 29806 ft | 403 kts | 159° |
| 2026-05-05 15:58 | 15.41421 | 120.55515 | 29410 ft | 399 kts | 154° |
| 2026-05-05 15:58 | 15.38974 | 120.56855 | 29027 ft | 394 kts | 154° |
| 2026-05-05 15:58 | 15.36570 | 120.58190 | 28655 ft | 389 kts | 153° |
| 2026-05-05 15:59 | 15.34185 | 120.59515 | 28288 ft | 384 kts | 153° |
| 2026-05-05 15:59 | 15.31862 | 120.60802 | 27907 ft | 381 kts | 153° |
| 2026-05-05 15:59 | 15.29511 | 120.62103 | 27508 ft | 377 kts | 153° |
| 2026-05-05 15:59 | 15.27225 | 120.63367 | 27115 ft | 374 kts | 154° |
| 2026-05-05 16:00 | 15.24913 | 120.64642 | 26706 ft | 372 kts | 153° |
| 2026-05-05 16:00 | 15.22615 | 120.65910 | 26295 ft | 369 kts | 153° |
| 2026-05-05 16:00 | 15.20368 | 120.67148 | 25890 ft | 367 kts | 153° |
| 2026-05-05 16:00 | 15.18131 | 120.68380 | 25475 ft | 365 kts | 153° |
| 2026-05-05 16:01 | 15.15884 | 120.69618 | 25057 ft | 363 kts | 153° |
| 2026-05-05 16:01 | 15.13647 | 120.70852 | 24643 ft | 361 kts | 153° |
| 2026-05-05 16:01 | 15.11426 | 120.72076 | 24239 ft | 359 kts | 152° |
| 2026-05-05 16:01 | 15.09250 | 120.73277 | 23843 ft | 357 kts | 153° |
| 2026-05-05 16:02 | 15.07059 | 120.74484 | 23454 ft | 354 kts | 153° |
| 2026-05-05 16:02 | 15.04883 | 120.75683 | 23073 ft | 352 kts | 152° |
| 2026-05-05 16:02 | 15.02743 | 120.76862 | 22699 ft | 349 kts | 152° |
| 2026-05-05 16:02 | 15.00593 | 120.78043 | 22309 ft | 348 kts | 152° |
| 2026-05-05 16:03 | 14.98466 | 120.79212 | 21918 ft | 346 kts | 152° |
| 2026-05-05 16:03 | 14.96325 | 120.80351 | 21514 ft | 345 kts | 158° |
| 2026-05-05 16:03 | 14.93986 | 120.80844 | 21107 ft | 343 kts | 181° |
| 2026-05-05 16:03 | 14.91660 | 120.80369 | 20717 ft | 341 kts | 200° |
| 2026-05-05 16:04 | 14.89466 | 120.79492 | 20346 ft | 339 kts | 201° |
| 2026-05-05 16:04 | 14.87250 | 120.78606 | 19965 ft | 337 kts | 200° |
| 2026-05-05 16:04 | 14.85085 | 120.77749 | 19591 ft | 336 kts | 200° |
| 2026-05-05 16:04 | 14.82885 | 120.76884 | 19211 ft | 334 kts | 200° |
| 2026-05-05 16:05 | 14.80724 | 120.76039 | 18834 ft | 333 kts | 200° |
| 2026-05-05 16:05 | 14.78545 | 120.75187 | 18463 ft | 331 kts | 200° |
| 2026-05-05 16:05 | 14.76410 | 120.74354 | 18097 ft | 330 kts | 200° |
| 2026-05-05 16:05 | 14.74230 | 120.73505 | 17632 ft | 335 kts | 200° |
| 2026-05-05 16:06 | 14.72065 | 120.72662 | 17072 ft | 331 kts | 200° |
| 2026-05-05 16:06 | 14.69925 | 120.71828 | 16510 ft | 327 kts | 200° |
| 2026-05-05 16:06 | 14.67807 | 120.71003 | 15953 ft | 325 kts | 200° |
| 2026-05-05 16:06 | 14.65697 | 120.70182 | 15395 ft | 316 kts | 200° |
| 2026-05-05 16:07 | 14.63656 | 120.69388 | 14826 ft | 309 kts | 199° |
| 2026-05-05 16:07 | 14.61603 | 120.68972 | 14254 ft | 300 kts | 173° |
| 2026-05-05 16:07 | 14.59679 | 120.69596 | 13713 ft | 289 kts | 148° |
| 2026-05-05 16:07 | 14.57967 | 120.70656 | 13153 ft | 284 kts | 147° |
| 2026-05-05 16:08 | 14.56255 | 120.71703 | 12586 ft | 284 kts | 148° |
| 2026-05-05 16:08 | 14.54576 | 120.72706 | 12033 ft | 280 kts | 149° |
| 2026-05-05 16:08 | 14.52738 | 120.73378 | 11438 ft | 280 kts | 176° |
| 2026-05-05 16:08 | 14.50873 | 120.72973 | 10861 ft | 280 kts | 209° |
| 2026-05-05 16:09 | 14.49508 | 120.71568 | 10391 ft | 280 kts | 239° |
| 2026-05-05 16:09 | 14.48621 | 120.69762 | 9938 ft | 281 kts | 242° |
| 2026-05-05 16:09 | 14.47729 | 120.67971 | 9470 ft | 283 kts | 240° |
| 2026-05-05 16:09 | 14.46805 | 120.66220 | 9305 ft | 271 kts | 239° |
| 2026-05-05 16:10 | 14.45909 | 120.64575 | 9174 ft | 260 kts | 239° |
| 2026-05-05 16:10 | 14.45018 | 120.62965 | 8926 ft | 255 kts | 239° |
| 2026-05-05 16:10 | 14.44138 | 120.61388 | 8592 ft | 253 kts | 239° |
| 2026-05-05 16:10 | 14.43260 | 120.59814 | 8252 ft | 253 kts | 239° |
| 2026-05-05 16:11 | 14.42377 | 120.58231 | 7865 ft | 254 kts | 239° |
| 2026-05-05 16:11 | 14.39743 | 120.53509 | 6722 ft | 252 kts | 239° |
| 2026-05-05 16:12 | 14.38876 | 120.51954 | 6342 ft | 252 kts | 239° |
| 2026-05-05 16:12 | 14.37134 | 120.48826 | 5573 ft | 250 kts | 239° |
| 2026-05-05 16:13 | 14.34192 | 120.44582 | 4990 ft | 235 kts | 201° |
| 2026-05-05 16:13 | 14.32618 | 120.44306 | 4982 ft | 228 kts | 167° |
| 2026-05-05 16:13 | 14.31210 | 120.44939 | 4978 ft | 221 kts | 135° |
| 2026-05-05 16:14 | 14.30308 | 120.47743 | 4991 ft | 215 kts | 82° |
| 2026-05-05 16:14 | 14.30674 | 120.50837 | 4992 ft | 217 kts | 83° |
| 2026-05-05 16:15 | 14.31013 | 120.53927 | 4993 ft | 217 kts | 83° |
| 2026-05-05 16:15 | 14.31368 | 120.57236 | 5008 ft | 255 kts | 83° |
| 2026-05-05 16:16 | 14.31773 | 120.60950 | 4996 ft | 263 kts | 83° |
| 2026-05-05 16:16 | 14.32171 | 120.64612 | 4991 ft | 245 kts | 83° |
| 2026-05-05 16:17 | 14.32622 | 120.67877 | 4989 ft | 220 kts | 79° |
| 2026-05-05 16:17 | 14.32992 | 120.69414 | 4989 ft | 219 kts | 70° |
| 2026-05-05 16:18 | 14.34329 | 120.72238 | 4762 ft | 219 kts | 61° |
| 2026-05-05 16:18 | 14.35076 | 120.73577 | 4625 ft | 218 kts | 60° |
| 2026-05-05 16:18 | 14.36602 | 120.76298 | 4210 ft | 217 kts | 60° |
| 2026-05-05 16:19 | 14.37353 | 120.77647 | 3977 ft | 216 kts | 60° |
| 2026-05-05 16:19 | 14.38094 | 120.78979 | 3744 ft | 215 kts | 60° |
| 2026-05-05 16:19 | 14.39576 | 120.81652 | 3266 ft | 213 kts | 60° |
| 2026-05-05 16:20 | 14.41057 | 120.84324 | 3007 ft | 216 kts | 60° |
| 2026-05-05 16:20 | 14.42492 | 120.86910 | 2915 ft | 196 kts | 61° |
| 2026-05-05 16:21 | 14.43794 | 120.89256 | 2448 ft | 184 kts | 61° |
| 2026-05-05 16:22 | 14.45526 | 120.92374 | 1768 ft | 149 kts | 61° |
| 2026-05-05 16:22 | 14.46530 | 120.94181 | 1405 ft | 145 kts | 61° |
| 2026-05-05 16:23 | 14.47495 | 120.95920 | 1030 ft | 136 kts | 60° |
| 2026-05-05 16:23 | 14.47965 | 120.96764 | 841 ft | 135 kts | 60° |
| 2026-05-05 16:23 | 14.48903 | 120.98450 | 498 ft | 135 kts | 61° |
| 2026-05-05 16:24 | 14.49393 | 120.99271 | 337 ft | 134 kts | 58° |
| 2026-05-05 16:24 | 14.49858 | 121.00098 | 133 ft | 132 kts | 65° |
| 2026-05-05 16:24 | 14.50579 | 121.01444 | 82 ft | 60 kts | 60° |
| 2026-05-05 16:25 | 14.50709 | 121.01670 | 82 ft | 21 kts | 51° |
| 2026-05-05 16:25 | 14.50869 | 121.01798 | 82 ft | 6 kts | 37° |
| 2026-05-05 16:25 | 14.50896 | 121.01819 | 82 ft | 5 kts | 37° |
| 2026-05-05 16:26 | 14.50978 | 121.01830 | 82 ft | 8 kts | 334° |
| 2026-05-05 16:26 | 14.51054 | 121.01756 | 82 ft | 2 kts | 315° |
| 2026-05-05 16:27 | 14.51062 | 121.01749 | 82 ft | 1 kts | 315° |
| 2026-05-05 16:27 | 14.51081 | 121.01730 | 82 ft | 6 kts | 315° |
| 2026-05-05 16:27 | 14.51129 | 121.01679 | 82 ft | 12 kts | 315° |
| 2026-05-05 16:27 | 14.51201 | 121.01605 | 82 ft | 15 kts | 314° |
| 2026-05-05 16:28 | 14.51253 | 121.01549 | 82 ft | 7 kts | 315° |
| 2026-05-05 16:28 | 14.51296 | 121.01515 | 82 ft | 8 kts | 339° |
| 2026-05-05 16:28 | 14.51355 | 121.01524 | 82 ft | 9 kts | 33° |
| 2026-05-05 16:28 | 14.51406 | 121.01572 | 82 ft | 9 kts | 42° |
| 2026-05-05 16:29 | 14.51462 | 121.01580 | 82 ft | 9 kts | 326° |
| 2026-05-05 16:29 | 14.51506 | 121.01550 | 82 ft | 6 kts | 12° |
| 2026-05-05 16:29 | 14.51537 | 121.01584 | 82 ft | 6 kts | 46° |
| 2026-05-05 16:29 | 14.51558 | 121.01605 | 82 ft | 2 kts | 44° |
| 2026-05-05 16:30 | 14.51569 | 121.01616 | 82 ft | 1 kts | 44° |
| 2026-05-05 16:30 | 14.51572 | 121.01620 | 82 ft | 0 kts | 44° |